createdAt,value
2023-05-10T00:00:48.705Z,97411.22
2023-05-10T00:02:20.477Z,97411.63
2023-05-10T00:03:52.303Z,97410.59
2023-05-10T00:05:24.102Z,97420.13
2023-05-10T00:06:55.863Z,97419.50
2023-05-10T00:08:27.449Z,97419.13
2023-05-10T00:09:59.122Z,97411.41
2023-05-10T00:11:30.953Z,97415.88
2023-05-10T00:13:02.708Z,97416.06
2023-05-10T00:14:34.453Z,97418.13
2023-05-10T00:16:06.394Z,97419.94
2023-05-10T00:17:38.216Z,97416.06
2023-05-10T00:19:09.890Z,97419.94
2023-05-10T00:20:41.467Z,97420.34
2023-05-10T00:22:13.141Z,97426.22
2023-05-10T00:23:44.892Z,97420.53
2023-05-10T00:25:16.573Z,97423.38
2023-05-10T00:26:48.192Z,97424.41
2023-05-10T00:28:19.948Z,97432.75
2023-05-10T00:29:51.581Z,97431.91
2023-05-10T00:31:23.384Z,97433.94
2023-05-10T00:32:55.901Z,97438.00
2023-05-10T00:34:28.222Z,97434.94
2023-05-10T00:35:59.909Z,97443.84
2023-05-10T00:37:31.497Z,97433.31
2023-05-10T00:39:04.592Z,97436.75
2023-05-10T00:40:38.036Z,97443.22
2023-05-10T00:42:13.769Z,97444.22
2023-05-10T00:43:46.241Z,97437.56
2023-05-10T00:45:17.941Z,97440.00
2023-05-10T00:46:50.295Z,97440.56
2023-05-10T00:48:22.952Z,97440.19
2023-05-10T00:49:54.725Z,97450.25
2023-05-10T00:51:26.929Z,97448.44
2023-05-10T00:53:00.422Z,97446.63
2023-05-10T00:54:32.134Z,97454.75
2023-05-10T00:56:04.792Z,97449.66
2023-05-10T00:57:36.576Z,97454.34
2023-05-10T00:59:09.867Z,97449.06
2023-05-10T01:00:44.592Z,97450.28
2023-05-10T01:02:16.275Z,97448.06
2023-05-10T01:03:48.234Z,97457.00
2023-05-10T01:05:21.085Z,97452.53
2023-05-10T01:06:54.740Z,97452.50
2023-05-10T01:08:27.072Z,97457.34
2023-05-10T01:09:59.076Z,97453.91
2023-05-10T01:11:30.904Z,97460.41
2023-05-10T01:13:04.133Z,97462.63
2023-05-10T01:14:37.324Z,97461.81
2023-05-10T01:16:09.170Z,97461.81
2023-05-10T01:17:43.389Z,97459.59
2023-05-10T01:19:27.165Z,97464.47
2023-05-10T01:21:10.021Z,97466.69
2023-05-10T01:23:03.495Z,97462.81
2023-05-10T01:24:59.779Z,97470.53
2023-05-10T01:26:55.570Z,97468.31
2023-05-10T01:28:27.108Z,97468.50
2023-05-10T01:30:30.904Z,97475.97
2023-05-10T01:32:32.001Z,97478.22
2023-05-10T01:34:07.611Z,97471.75
2023-05-10T01:35:56.656Z,97483.28
2023-05-10T01:37:53.376Z,97484.47
2023-05-10T01:40:01.309Z,97481.78
2023-05-10T01:42:04.864Z,97483.00
2023-05-10T01:43:46.168Z,97489.88
2023-05-10T01:45:37.962Z,97489.63
2023-05-10T01:47:14.563Z,97492.63
2023-05-10T01:48:56.861Z,97492.22
2023-05-10T01:50:31.038Z,97492.41
2023-05-10T01:52:11.806Z,97493.84
2023-05-10T01:53:47.272Z,97493.69
2023-05-10T01:55:22.409Z,97500.19
2023-05-10T01:57:04.834Z,97496.75
2023-05-10T01:58:40.902Z,97503.47
2023-05-10T02:00:14.965Z,97500.59
2023-05-10T02:01:48.649Z,97498.19
2023-05-10T02:03:24.504Z,97496.31
2023-05-10T02:04:58.213Z,97499.56
2023-05-10T02:06:31.841Z,97506.66
2023-05-10T02:08:07.897Z,97505.03
2023-05-10T02:09:45.124Z,97508.88
2023-05-10T02:11:19.596Z,97519.16
2023-05-10T02:12:53.048Z,97516.16
2023-05-10T02:14:27.397Z,97514.16
2023-05-10T02:16:00.812Z,97514.91
2023-05-10T02:17:34.162Z,97517.34
2023-05-10T02:19:07.308Z,97523.22
2023-05-10T02:20:39.973Z,97515.72
2023-05-10T02:22:12.773Z,97524.88
2023-05-10T02:23:46.104Z,97522.03
2023-05-10T02:25:20.296Z,97521.38
2023-05-10T02:26:55.475Z,97521.56
2023-05-10T02:28:28.409Z,97530.88
2023-05-10T02:30:01.603Z,97528.66
2023-05-10T02:31:34.662Z,97532.47
2023-05-10T02:33:07.005Z,97529.00
2023-05-10T02:34:39.850Z,97528.00
2023-05-10T02:36:13.821Z,97526.56
2023-05-10T02:37:47.764Z,97529.75
2023-05-10T02:39:21.810Z,97534.84
2023-05-10T02:40:54.797Z,97519.47
2023-05-10T02:42:28.940Z,97535.44
2023-05-10T02:44:03.907Z,97528.13
2023-05-10T02:45:37.369Z,97526.13
2023-05-10T02:47:09.198Z,97521.50
2023-05-10T02:48:40.993Z,97523.31
2023-05-10T02:50:12.782Z,97522.69
2023-05-10T02:51:52.554Z,97526.56
2023-05-10T02:53:31.447Z,97530.84
2023-05-10T02:55:06.089Z,97531.84
2023-05-10T02:56:43.500Z,97533.88
2023-05-10T02:58:15.234Z,97531.03
2023-05-10T02:59:47.103Z,97534.88
2023-05-10T03:01:18.836Z,97547.81
2023-05-10T03:02:50.613Z,97543.59
2023-05-10T03:04:22.522Z,97536.88
2023-05-10T03:05:56.775Z,97543.59
2023-05-10T03:07:28.443Z,97540.53
2023-05-10T03:09:00.654Z,97546.22
2023-05-10T03:10:34.918Z,97540.16
2023-05-10T03:12:32.628Z,97534.47
2023-05-10T03:14:25.211Z,97538.91
2023-05-10T03:16:13.455Z,97542.09
2023-05-10T03:17:56.415Z,97538.88
2023-05-10T03:19:55.954Z,97540.50
2023-05-10T03:21:31.022Z,97547.13
2023-05-10T03:23:18.904Z,97541.88
2023-05-10T03:24:52.326Z,97546.97
2023-05-10T03:26:34.456Z,97549.78
2023-05-10T03:28:15.315Z,97548.97
2023-05-10T03:29:47.524Z,97547.97
2023-05-10T03:31:19.863Z,97544.31
2023-05-10T03:32:51.790Z,97542.91
2023-05-10T03:34:27.121Z,97549.81
2023-05-10T03:35:58.780Z,97546.38
2023-05-10T03:37:31.645Z,97557.53
2023-05-10T03:39:03.739Z,97551.63
2023-05-10T03:40:35.991Z,97549.81
2023-05-10T03:42:07.636Z,97554.44
2023-05-10T03:43:39.494Z,97550.59
2023-05-10T03:45:11.260Z,97550.34
2023-05-10T03:46:42.933Z,97555.19
2023-05-10T03:48:14.938Z,97558.25
2023-05-10T03:49:47.335Z,97559.28
2023-05-10T03:51:18.944Z,97558.94
2023-05-10T03:52:51.020Z,97559.13
2023-05-10T03:54:23.714Z,97564.78
2023-05-10T03:55:55.369Z,97556.03
2023-05-10T03:57:27.027Z,97558.25
2023-05-10T03:58:58.640Z,97554.31
2023-05-10T04:00:31.082Z,97551.47
2023-05-10T04:02:02.762Z,97549.81
2023-05-10T04:03:37.411Z,97550.28
2023-05-10T04:05:10.150Z,97553.75
2023-05-10T04:06:41.851Z,97557.75
2023-05-10T04:08:13.654Z,97553.50
2023-05-10T04:09:45.230Z,97561.34
2023-05-10T04:11:17.093Z,97552.34
2023-05-10T04:12:48.710Z,97558.75
2023-05-10T04:14:20.674Z,97553.16
2023-05-10T04:15:52.269Z,97550.13
2023-05-10T04:17:23.896Z,97554.66
2023-05-10T04:18:55.530Z,97550.63
2023-05-10T04:20:27.167Z,97561.56
2023-05-10T04:21:59.611Z,97563.28
2023-05-10T04:23:31.231Z,97561.09
2023-05-10T04:25:02.866Z,97569.88
2023-05-10T04:26:34.467Z,97562.84
2023-05-10T04:28:06.114Z,97565.88
2023-05-10T04:29:37.881Z,97571.59
2023-05-10T04:31:10.833Z,97570.91
2023-05-10T04:32:42.430Z,97568.72
2023-05-10T04:34:14.110Z,97569.53
2023-05-10T04:35:46.236Z,97574.81
2023-05-10T04:37:18.250Z,97572.41
2023-05-10T04:38:49.975Z,97580.28
2023-05-10T04:40:21.727Z,97573.19
2023-05-10T04:41:53.363Z,97578.19
2023-05-10T04:43:24.902Z,97578.38
2023-05-10T04:44:56.499Z,97579.25
2023-05-10T04:46:28.278Z,97584.94
2023-05-10T04:48:00.012Z,97575.00
2023-05-10T04:49:31.711Z,97580.84
2023-05-10T04:51:05.017Z,97577.66
2023-05-10T04:52:37.410Z,97570.31
2023-05-10T04:54:09.104Z,97577.19
2023-05-10T04:55:40.739Z,97578.44
2023-05-10T04:57:12.339Z,97579.44
2023-05-10T04:58:44.074Z,97576.34
2023-05-10T05:00:16.382Z,97573.72
2023-05-10T05:01:48.375Z,97579.66
2023-05-10T05:03:20.108Z,97584.22
2023-05-10T05:04:51.963Z,97583.84
2023-05-10T05:06:25.751Z,97581.63
2023-05-10T05:07:57.619Z,97583.47
2023-05-10T05:09:29.210Z,97583.59
2023-05-10T05:11:00.814Z,97591.50
2023-05-10T05:12:32.812Z,97589.69
2023-05-10T05:14:04.427Z,97590.16
2023-05-10T05:15:36.025Z,97588.47
2023-05-10T05:17:08.492Z,97591.09
2023-05-10T05:18:40.140Z,97592.41
2023-05-10T05:20:12.187Z,97597.22
2023-05-10T05:21:44.311Z,97596.25
2023-05-10T05:23:15.976Z,97600.31
2023-05-10T05:24:47.762Z,97602.75
2023-05-10T05:26:19.356Z,97607.78
2023-05-10T05:27:51.040Z,97606.59
2023-05-10T05:29:22.590Z,97604.59
2023-05-10T05:30:54.244Z,97608.78
2023-05-10T05:32:26.458Z,97607.78
2023-05-10T05:33:58.159Z,97614.66
2023-05-10T05:35:29.814Z,97612.19
2023-05-10T05:37:01.402Z,97614.59
2023-05-10T05:38:33.152Z,97620.31
2023-05-10T05:40:05.294Z,97617.22
2023-05-10T05:41:37.166Z,97623.91
2023-05-10T05:43:08.831Z,97612.97
2023-05-10T05:44:40.747Z,97618.22
2023-05-10T05:46:12.386Z,97615.81
2023-05-10T05:47:44.085Z,97623.31
2023-05-10T05:49:15.806Z,97622.25
2023-05-10T05:50:47.578Z,97617.19
2023-05-10T05:52:19.272Z,97618.41
2023-05-10T05:53:50.828Z,97616.22
2023-05-10T05:55:22.414Z,97615.03
2023-05-10T05:57:01.550Z,97623.94
2023-05-10T05:58:33.258Z,97622.84
2023-05-10T06:00:05.547Z,97629.53
2023-05-10T06:01:44.222Z,97632.59
2023-05-10T06:03:16.547Z,97626.72
2023-05-10T06:04:48.310Z,97627.53
2023-05-10T06:06:20.014Z,97623.69
2023-05-10T06:07:51.651Z,97629.75
2023-05-10T06:09:25.426Z,97621.03
2023-05-10T06:10:57.192Z,97629.97
2023-05-10T06:12:28.979Z,97626.13
2023-05-10T06:14:00.592Z,97626.34
2023-05-10T06:15:33.541Z,97624.97
2023-05-10T06:17:06.188Z,97624.41
2023-05-10T06:18:37.880Z,97630.28
2023-05-10T06:20:09.948Z,97634.75
2023-05-10T06:21:42.507Z,97637.81
2023-05-10T06:23:15.797Z,97642.06
2023-05-10T06:24:48.097Z,97642.53
2023-05-10T06:26:20.595Z,97642.34
2023-05-10T06:27:58.308Z,97651.38
2023-05-10T06:29:30.706Z,97644.50
2023-05-10T06:31:03.600Z,97647.78
2023-05-10T06:32:35.893Z,97649.41
2023-05-10T06:34:09.618Z,97653.91
2023-05-10T06:35:41.979Z,97653.25
2023-05-10T06:37:14.299Z,97653.66
2023-05-10T06:38:46.377Z,97661.78
2023-05-10T06:40:19.078Z,97657.53
2023-05-10T06:41:52.307Z,97653.91
2023-05-10T06:43:26.196Z,97655.53
2023-05-10T06:44:58.687Z,97653.53
2023-05-10T06:46:31.008Z,97657.59
2023-05-10T06:48:03.053Z,97663.28
2023-05-10T06:49:34.799Z,97657.19
2023-05-10T06:51:06.717Z,97662.84
2023-05-10T06:52:38.822Z,97655.75
2023-05-10T06:54:10.851Z,97662.03
2023-05-10T06:55:42.898Z,97662.28
2023-05-10T06:57:27.728Z,97657.41
2023-05-10T06:59:02.918Z,97666.94
2023-05-10T07:00:34.849Z,97654.00
2023-05-10T07:02:07.075Z,97656.97
2023-05-10T07:03:38.742Z,97657.78
2023-05-10T07:05:10.537Z,97659.34
2023-05-10T07:06:42.377Z,97652.44
2023-05-10T07:08:14.457Z,97655.91
2023-05-10T07:09:46.408Z,97660.59
2023-05-10T07:11:18.218Z,97658.97
2023-05-10T07:12:50.287Z,97662.47
2023-05-10T07:14:22.114Z,97665.47
2023-05-10T07:15:53.855Z,97662.06
2023-05-10T07:17:25.768Z,97665.28
2023-05-10T07:18:57.520Z,97666.28
2023-05-10T07:20:29.195Z,97669.56
2023-05-10T07:22:01.218Z,97668.25
2023-05-10T07:23:32.872Z,97666.09
2023-05-10T07:25:04.817Z,97670.19
2023-05-10T07:26:36.675Z,97670.22
2023-05-10T07:28:08.481Z,97665.59
2023-05-10T07:29:40.665Z,97670.41
2023-05-10T07:31:12.466Z,97667.16
2023-05-10T07:32:44.400Z,97672.69
2023-05-10T07:34:16.977Z,97669.63
2023-05-10T07:35:49.166Z,97672.06
2023-05-10T07:37:20.992Z,97658.47
2023-05-10T07:38:52.656Z,97665.78
2023-05-10T07:40:24.840Z,97665.81
2023-05-10T07:41:56.820Z,97671.31
2023-05-10T07:43:28.928Z,97670.13
2023-05-10T07:45:00.688Z,97669.31
2023-05-10T07:46:32.402Z,97658.78
2023-05-10T07:48:04.218Z,97670.56
2023-05-10T07:49:36.687Z,97663.47
2023-05-10T07:51:10.314Z,97669.50
2023-05-10T07:52:42.614Z,97665.69
2023-05-10T07:54:15.064Z,97676.06
2023-05-10T07:55:52.039Z,97676.66
2023-05-10T07:57:23.686Z,97665.53
2023-05-10T07:58:55.361Z,97673.47
2023-05-10T08:00:27.229Z,97669.56
2023-05-10T08:01:58.884Z,97672.03
2023-05-10T08:03:30.775Z,97671.06
2023-05-10T08:05:02.749Z,97670.47
2023-05-10T08:06:34.457Z,97673.72
2023-05-10T08:08:06.248Z,97675.81
2023-05-10T08:09:37.874Z,97679.84
2023-05-10T08:11:09.611Z,97679.13
2023-05-10T08:12:41.330Z,97674.00
2023-05-10T08:14:13.096Z,97675.06
2023-05-10T08:15:44.955Z,97680.75
2023-05-10T08:17:18.248Z,97680.34
2023-05-10T08:18:52.031Z,97689.50
2023-05-10T08:20:23.842Z,97680.16
2023-05-10T08:21:57.009Z,97679.53
2023-05-10T08:23:29.882Z,97678.72
2023-05-10T08:25:02.402Z,97678.34
2023-05-10T08:26:34.810Z,97678.13
2023-05-10T08:28:06.510Z,97674.91
2023-05-10T08:29:49.468Z,97679.56
2023-05-10T08:31:21.753Z,97678.94
2023-05-10T08:32:53.426Z,97671.25
2023-05-10T08:34:25.359Z,97688.69
2023-05-10T08:35:57.332Z,97690.94
2023-05-10T08:37:31.159Z,97679.34
2023-05-10T08:39:03.257Z,97687.28
2023-05-10T08:40:37.042Z,97689.09
2023-05-10T08:42:10.229Z,97690.91
2023-05-10T08:43:47.117Z,97683.41
2023-05-10T08:45:20.958Z,97681.34
2023-05-10T08:46:55.481Z,97684.22
2023-05-10T08:48:29.924Z,97693.75
2023-05-10T08:50:03.925Z,97697.78
2023-05-10T08:51:41.897Z,97697.41
2023-05-10T08:53:17.252Z,97698.84
2023-05-10T08:54:49.333Z,97693.56
2023-05-10T08:56:21.837Z,97700.47
2023-05-10T08:57:54.071Z,97703.13
2023-05-10T08:59:26.022Z,97701.91
2023-05-10T09:00:58.058Z,97709.00
2023-05-10T09:02:29.865Z,97694.59
2023-05-10T09:04:01.932Z,97709.03
2023-05-10T09:05:33.708Z,97706.38
2023-05-10T09:07:05.747Z,97705.78
2023-05-10T09:08:38.113Z,97708.78
2023-05-10T09:10:11.753Z,97704.94
2023-05-10T09:11:43.874Z,97709.19
2023-05-10T09:13:16.738Z,97715.69
2023-05-10T09:14:49.265Z,97717.31
2023-05-10T09:16:22.488Z,97724.03
2023-05-10T09:17:55.709Z,97719.56
2023-05-10T09:19:28.990Z,97715.28
2023-05-10T09:21:00.922Z,97714.69
2023-05-10T09:22:33.117Z,97717.50
2023-05-10T09:24:06.844Z,97715.88
2023-05-10T09:25:39.633Z,97709.75
2023-05-10T09:27:11.248Z,97704.56
2023-05-10T09:28:57.594Z,97705.97
2023-05-10T09:30:30.253Z,97713.88
2023-05-10T09:32:01.886Z,97711.97
2023-05-10T09:33:45.418Z,97710.88
2023-05-10T09:35:20.171Z,97710.44
2023-05-10T09:36:57.166Z,97703.06
2023-05-10T09:38:28.853Z,97711.84
2023-05-10T09:40:00.556Z,97706.91
2023-05-10T09:41:32.239Z,97709.81
2023-05-10T09:43:11.807Z,97712.84
2023-05-10T09:44:44.467Z,97716.19
2023-05-10T09:46:17.605Z,97712.00
2023-05-10T09:47:49.572Z,97704.88
2023-05-10T09:49:22.438Z,97707.47
2023-05-10T09:51:00.318Z,97721.38
2023-05-10T09:52:47.764Z,97719.22
2023-05-10T09:54:19.350Z,97716.28
2023-05-10T09:55:51.913Z,97718.06
2023-05-10T09:57:25.367Z,97720.56
2023-05-10T09:59:03.923Z,97722.75
2023-05-10T10:00:40.400Z,97722.94
2023-05-10T10:02:13.105Z,97722.78
2023-05-10T10:03:45.026Z,97720.53
2023-05-10T10:05:17.408Z,97722.16
2023-05-10T10:07:03.572Z,97723.97
2023-05-10T10:08:36.279Z,97726.06
2023-05-10T10:10:12.419Z,97720.56
2023-05-10T10:11:44.634Z,97717.91
2023-05-10T10:13:16.555Z,97712.84
2023-05-10T10:14:49.163Z,97721.34
2023-05-10T10:16:21.529Z,97713.25
2023-05-10T10:17:54.185Z,97720.53
2023-05-10T10:19:27.468Z,97719.94
2023-05-10T10:20:59.526Z,97718.91
2023-05-10T10:22:31.201Z,97716.03
2023-05-10T10:24:02.864Z,97721.91
2023-05-10T10:25:35.144Z,97721.13
2023-05-10T10:27:21.405Z,97721.75
2023-05-10T10:29:25.330Z,97709.66
2023-05-10T10:31:12.126Z,97711.25
2023-05-10T10:34:58.933Z,97706.50
2023-05-10T10:36:31.291Z,97715.09
2023-05-10T10:38:03.120Z,97711.44
2023-05-10T10:39:37.559Z,97711.47
2023-05-10T10:41:12.541Z,97710.84
2023-05-10T10:42:48.200Z,97714.94
2023-05-10T10:44:23.275Z,97709.94
2023-05-10T10:46:10.747Z,97719.28
2023-05-10T10:47:44.252Z,97710.78
2023-05-10T10:49:16.426Z,97709.44
2023-05-10T10:50:48.102Z,97707.59
2023-05-10T10:52:28.688Z,97701.56
2023-05-10T10:54:11.206Z,97716.88
2023-05-10T10:55:49.395Z,97710.97
2023-05-10T10:57:24.307Z,97726.66
2023-05-10T10:59:00.798Z,97730.06
2023-05-10T11:00:33.926Z,97731.72
2023-05-10T11:02:08.080Z,97728.47
2023-05-10T11:03:39.816Z,97727.91
2023-05-10T11:05:29.799Z,97730.72
2023-05-10T11:07:33.565Z,97733.16
2023-05-10T11:09:13.350Z,97729.31
2023-05-10T11:10:53.387Z,97737.25
2023-05-10T11:12:25.025Z,97747.03
2023-05-10T11:14:04.576Z,97743.56
2023-05-10T11:15:39.211Z,97746.22
2023-05-10T11:17:28.950Z,97749.06
2023-05-10T11:19:10.530Z,97747.84
2023-05-10T11:20:42.329Z,97754.56
2023-05-10T11:22:15.151Z,97755.13
2023-05-10T11:23:52.326Z,97763.06
2023-05-10T11:25:29.783Z,97768.97
2023-05-10T11:27:02.010Z,97768.97
2023-05-10T11:28:33.957Z,97769.38
2023-05-10T11:30:07.613Z,97770.56
2023-05-10T11:31:45.053Z,97778.28
2023-05-10T11:33:20.708Z,97774.00
2023-05-10T11:34:52.527Z,97775.44
2023-05-10T11:36:34.477Z,97775.44
2023-05-10T11:38:07.489Z,97776.47
2023-05-10T11:39:39.115Z,97775.38
2023-05-10T11:41:12.512Z,97778.63
2023-05-10T11:42:44.248Z,97782.44
2023-05-10T11:44:16.164Z,97775.53
2023-05-10T11:45:47.790Z,97781.63
2023-05-10T11:47:19.523Z,97782.25
2023-05-10T11:48:52.884Z,97784.69
2023-05-10T11:50:25.730Z,97786.34
2023-05-10T11:52:08.177Z,97780.06
2023-05-10T11:53:40.117Z,97786.94
2023-05-10T11:55:13.108Z,97786.38
2023-05-10T11:56:45.925Z,97779.09
2023-05-10T11:58:19.468Z,97781.13
2023-05-10T11:59:55.765Z,97778.50
2023-05-10T12:01:28.286Z,97782.38
2023-05-10T12:03:02.298Z,97785.03
2023-05-10T12:04:34.572Z,97780.97
2023-05-10T12:06:08.974Z,97784.59
2023-05-10T12:07:40.691Z,97790.94
2023-05-10T12:09:12.500Z,97783.59
2023-05-10T12:10:44.209Z,97790.53
2023-05-10T12:12:18.692Z,97787.69
2023-05-10T12:13:51.139Z,97794.41
2023-05-10T12:15:24.907Z,97784.44
2023-05-10T12:16:58.375Z,97790.13
2023-05-10T12:18:30.217Z,97779.16
2023-05-10T12:20:21.537Z,97785.63
2023-05-10T12:21:53.253Z,97789.09
2023-05-10T12:23:24.998Z,97784.00
2023-05-10T12:24:56.649Z,97779.13
2023-05-10T12:26:29.208Z,97786.84
2023-05-10T12:28:04.251Z,97784.81
2023-05-10T12:29:36.196Z,97785.84
2023-05-10T12:31:08.189Z,97783.00
2023-05-10T12:32:41.887Z,97789.28
2023-05-10T12:34:33.756Z,97787.47
2023-05-10T12:36:06.543Z,97790.31
2023-05-10T12:37:40.148Z,97788.28
2023-05-10T12:39:12.644Z,97796.00
2023-05-10T12:40:44.607Z,97800.47
2023-05-10T12:42:16.312Z,97796.22
2023-05-10T12:43:49.100Z,97794.38
2023-05-10T12:45:20.974Z,97791.75
2023-05-10T12:46:52.532Z,97789.09
2023-05-10T12:48:24.277Z,97785.44
2023-05-10T12:49:55.919Z,97784.00
2023-05-10T12:51:27.556Z,97787.28
2023-05-10T12:52:59.223Z,97786.25
2023-05-10T12:54:31.033Z,97781.78
2023-05-10T12:56:03.830Z,97786.47
2023-05-10T12:57:35.801Z,97786.28
2023-05-10T12:59:07.450Z,97775.06
2023-05-10T13:00:39.189Z,97775.88
2023-05-10T13:02:11.083Z,97774.03
2023-05-10T13:03:44.090Z,97774.25
2023-05-10T13:05:15.754Z,97775.03
2023-05-10T13:06:47.456Z,97778.66
2023-05-10T13:08:19.044Z,97773.97
2023-05-10T13:09:50.713Z,97771.75
2023-05-10T13:11:22.653Z,97778.25
2023-05-10T13:12:54.288Z,97776.81
2023-05-10T13:14:26.352Z,97776.34
2023-05-10T13:15:57.940Z,97777.88
2023-05-10T13:17:31.117Z,97773.59
2023-05-10T13:19:03.962Z,97777.00
2023-05-10T13:20:35.621Z,97778.38
2023-05-10T13:22:07.403Z,97776.50
2023-05-10T13:23:39.142Z,97770.81
2023-05-10T13:25:11.793Z,97768.28
2023-05-10T13:26:43.951Z,97775.75
2023-05-10T13:28:15.908Z,97776.03
2023-05-10T13:29:49.140Z,97770.84
2023-05-10T13:31:21.732Z,97765.63
2023-05-10T13:32:53.639Z,97762.75
2023-05-10T13:34:25.451Z,97754.94
2023-05-10T13:35:57.128Z,97763.28
2023-05-10T13:37:29.382Z,97756.19
2023-05-10T13:39:03.874Z,97759.66
2023-05-10T13:40:35.507Z,97758.56
2023-05-10T13:42:07.495Z,97758.09
2023-05-10T13:43:39.159Z,97758.69
2023-05-10T13:45:13.266Z,97752.53
2023-05-10T13:46:45.603Z,97759.00
2023-05-10T13:48:17.428Z,97754.34
2023-05-10T13:49:50.373Z,97767.38
2023-05-10T13:51:22.213Z,97761.28
2023-05-10T13:52:53.963Z,97758.16
2023-05-10T13:54:26.292Z,97754.53
2023-05-10T13:55:58.268Z,97753.69
2023-05-10T13:57:31.204Z,97756.72
2023-05-10T13:59:03.285Z,97749.63
2023-05-10T14:00:35.130Z,97755.28
2023-05-10T14:02:07.425Z,97747.44
2023-05-10T14:03:39.307Z,97748.59
2023-05-10T14:05:11.225Z,97748.31
2023-05-10T14:06:44.477Z,97744.72
2023-05-10T14:08:16.845Z,97749.72
2023-05-10T14:09:48.532Z,97744.22
2023-05-10T14:11:22.580Z,97744.91
2023-05-10T14:12:55.532Z,97742.16
2023-05-10T14:14:27.529Z,97739.91
2023-05-10T14:16:01.475Z,97737.50
2023-05-10T14:17:33.789Z,97734.13
2023-05-10T14:19:06.887Z,97737.97
2023-05-10T14:20:41.815Z,97736.66
2023-05-10T14:22:13.828Z,97741.28
2023-05-10T14:23:45.620Z,97734.81
2023-05-10T14:25:17.504Z,97742.59
2023-05-10T14:26:49.523Z,97740.16
2023-05-10T14:28:21.898Z,97742.69
2023-05-10T14:29:54.295Z,97734.97
2023-05-10T14:31:26.723Z,97732.94
2023-05-10T14:32:59.612Z,97725.38
2023-05-10T14:34:31.209Z,97727.81
2023-05-10T14:36:04.471Z,97729.41
2023-05-10T14:37:36.179Z,97733.00
2023-05-10T14:39:07.814Z,97736.47
2023-05-10T14:40:39.708Z,97737.47
2023-05-10T14:42:11.577Z,97735.56
2023-05-10T14:43:43.385Z,97734.53
2023-05-10T14:45:15.248Z,97733.31
2023-05-10T14:46:47.366Z,97736.59
2023-05-10T14:48:19.269Z,97738.38
2023-05-10T14:49:51.223Z,97731.47
2023-05-10T14:51:23.044Z,97723.97
2023-05-10T14:52:54.648Z,97731.38
2023-05-10T14:54:26.915Z,97729.50
2023-05-10T14:55:58.869Z,97728.84
2023-05-10T14:57:30.806Z,97733.28
2023-05-10T14:59:02.535Z,97727.75
2023-05-10T15:00:34.978Z,97724.97
2023-05-10T15:02:09.182Z,97721.84
2023-05-10T15:03:41.416Z,97725.88
2023-05-10T15:05:13.594Z,97725.84
2023-05-10T15:06:46.033Z,97729.19
2023-05-10T15:08:17.682Z,97726.75
2023-05-10T15:09:49.465Z,97721.00
2023-05-10T15:11:21.612Z,97722.03
2023-05-10T15:12:53.492Z,97726.09
2023-05-10T15:14:25.307Z,97727.16
2023-05-10T15:15:57.110Z,97729.19
2023-05-10T15:17:28.830Z,97729.97
2023-05-10T15:19:00.598Z,97719.78
2023-05-10T15:20:32.645Z,97727.78
2023-05-10T15:22:06.268Z,97729.84
2023-05-10T15:23:37.981Z,97731.09
2023-05-10T15:25:10.653Z,97720.28
2023-05-10T15:26:42.270Z,97727.22
2023-05-10T15:28:14.020Z,97729.25
2023-05-10T15:29:45.742Z,97728.59
2023-05-10T15:31:17.436Z,97732.91
2023-05-10T15:32:49.272Z,97730.06
2023-05-10T15:34:21.132Z,97737.34
2023-05-10T15:35:54.616Z,97731.03
2023-05-10T15:37:26.335Z,97734.78
2023-05-10T15:38:58.418Z,97737.97
2023-05-10T15:40:30.549Z,97739.34
2023-05-10T15:42:02.539Z,97729.97
2023-05-10T15:43:35.248Z,97739.75
2023-05-10T15:45:07.722Z,97744.06
2023-05-10T15:46:39.432Z,97744.06
2023-05-10T15:48:11.232Z,97737.34
2023-05-10T15:49:42.869Z,97740.84
2023-05-10T15:51:16.127Z,97735.19
2023-05-10T15:52:48.048Z,97746.22
2023-05-10T15:54:19.766Z,97741.09
2023-05-10T15:55:51.657Z,97735.41
2023-05-10T15:57:23.555Z,97742.16
2023-05-10T15:58:55.321Z,97738.28
2023-05-10T16:00:27.047Z,97746.66
2023-05-10T16:01:58.843Z,97750.16
2023-05-10T16:03:31.667Z,97750.16
2023-05-10T16:05:04.497Z,97757.06
2023-05-10T16:06:37.931Z,97754.19
2023-05-10T16:08:09.645Z,97750.97
2023-05-10T16:09:41.465Z,97761.56
2023-05-10T16:11:13.212Z,97754.06
2023-05-10T16:12:44.951Z,97762.59
2023-05-10T16:14:17.195Z,97762.22
2023-05-10T16:15:48.886Z,97762.66
2023-05-10T16:17:20.754Z,97765.09
2023-05-10T16:18:53.113Z,97758.59
2023-05-10T16:20:24.894Z,97767.13
2023-05-10T16:21:56.576Z,97772.81
2023-05-10T16:23:28.348Z,97768.16
2023-05-10T16:25:00.085Z,97768.97
2023-05-10T16:26:31.833Z,97776.28
2023-05-10T16:28:03.605Z,97773.44
2023-05-10T16:29:35.392Z,97773.03
2023-05-10T16:31:07.204Z,97771.81
2023-05-10T16:32:38.910Z,97773.03
2023-05-10T16:34:10.922Z,97775.47
2023-05-10T16:35:42.561Z,97776.69
2023-05-10T16:37:14.155Z,97776.28
2023-05-10T16:38:48.813Z,97772.63
2023-05-10T16:40:20.577Z,97775.06
2023-05-10T16:41:52.279Z,97783.81
2023-05-10T16:43:25.846Z,97778.53
2023-05-10T16:44:58.069Z,97784.41
2023-05-10T16:46:29.905Z,97778.53
2023-05-10T16:48:01.719Z,97782.81
2023-05-10T16:49:33.330Z,97782.78
2023-05-10T16:51:04.974Z,97781.19
2023-05-10T16:52:37.234Z,97785.03
2023-05-10T16:54:09.141Z,97780.31
2023-05-10T16:55:43.781Z,97780.56
2023-05-10T16:57:16.287Z,97787.84
2023-05-10T16:58:50.841Z,97792.31
2023-05-10T17:00:22.547Z,97787.84
2023-05-10T17:01:54.915Z,97798.78
2023-05-10T17:03:26.738Z,97799.97
2023-05-10T17:04:58.427Z,97796.31
2023-05-10T17:06:30.125Z,97793.88
2023-05-10T17:08:01.794Z,97801.03
2023-05-10T17:09:33.511Z,97798.16
2023-05-10T17:11:05.147Z,97799.13
2023-05-10T17:12:37.212Z,97798.91
2023-05-10T17:14:10.159Z,97799.50
2023-05-10T17:15:41.932Z,97799.09
2023-05-10T17:17:13.578Z,97801.53
2023-05-10T17:18:45.862Z,97806.81
2023-05-10T17:20:17.774Z,97804.81
2023-05-10T17:21:49.486Z,97805.38
2023-05-10T17:23:21.134Z,97811.91
2023-05-10T17:24:52.902Z,97813.09
2023-05-10T17:26:24.908Z,97816.91
2023-05-10T17:27:56.513Z,97813.91
2023-05-10T17:29:29.034Z,97811.88
2023-05-10T17:31:00.939Z,97811.88
2023-05-10T17:32:32.640Z,97814.28
2023-05-10T17:34:05.792Z,97813.91
2023-05-10T17:35:37.713Z,97817.75
2023-05-10T17:37:09.404Z,97819.19
2023-05-10T17:38:41.121Z,97818.38
2023-05-10T17:40:12.850Z,97825.47
2023-05-10T17:41:44.547Z,97828.53
2023-05-10T17:43:16.221Z,97821.13
2023-05-10T17:44:47.921Z,97821.75
2023-05-10T17:46:19.633Z,97817.69
2023-05-10T17:47:51.212Z,97825.41
2023-05-10T17:49:23.016Z,97818.91
2023-05-10T17:50:54.660Z,97811.38
2023-05-10T17:52:26.901Z,97823.16
2023-05-10T17:53:59.010Z,97823.53
2023-05-10T17:55:30.890Z,97820.44
2023-05-10T17:57:03.684Z,97819.78
2023-05-10T17:58:38.254Z,97822.44
2023-05-10T18:00:10.852Z,97819.59
2023-05-10T18:01:43.113Z,97817.41
2023-05-10T18:03:15.165Z,97820.03
2023-05-10T18:04:48.873Z,97819.88
2023-05-10T18:06:20.614Z,97821.44
2023-05-10T18:07:52.409Z,97809.66
2023-05-10T18:09:24.224Z,97811.03
2023-05-10T18:10:57.105Z,97814.06
2023-05-10T18:12:28.790Z,97812.66
2023-05-10T18:14:00.408Z,97804.75
2023-05-10T18:15:33.750Z,97811.22
2023-05-10T18:17:06.079Z,97809.09
2023-05-10T18:18:39.449Z,97815.81
2023-05-10T18:20:11.470Z,97817.16
2023-05-10T18:21:43.224Z,97816.06